^^
Station Historical Data
Daily Summary for July 12, 2017 Units:  English    Metric   Both
« Previous Day
Next Day »
Daily Weekly Monthly Yearly Custom
  High: Low: Average:
Temperature: 87.4 °F 71.7 °F 79.1 °F
Dew Point: 74.0 °F 70.0 °F 72 °F
Humidity: 96% 60% 80%
Wind Speed: 6.0mph 0.0mph 1.4mph
Wind Gust: 14.0mph - -
Wind- - SW
Pressure: 30.00 in 29.92 in -
Precipitation: 0.04 in    
Historical Graphs
 
 
Tabular Data for July 12, 2017
Time Temperature Dew Point Pressure Wind Wind Speed Wind Gust Humidity Rainfall Rate (Hourly) Conditions
00:00 72.8 °F 70.0 °F 29.95 in Calm     91% 0.00 in RA
00:15 72.6 °F 70.1 °F 29.95 in Calm     92% 0.00 in CLR
00:30 72.7 °F 70.2 °F 29.95 in Calm   1.0 mph 92% 0.00 in CLR
00:45 73.6 °F 70.8 °F 29.95 in Calm   2.0 mph 91% 0.00 in CLR
01:00 73.7 °F 70.6 °F 29.96 in Calm   1.0 mph 90% 0.00 in CLR
01:15 73.7 °F 70.6 °F 29.96 in Calm   1.0 mph 90% 0.00 in CLR
01:30 73.7 °F 70.9 °F 29.96 in Calm   2.0 mph 91% 0.00 in CLR
01:45 74.1 °F 71.0 °F 29.96 in Calm   1.0 mph 90% 0.00 in CLR
02:00 73.9 °F 70.8 °F 29.96 in Calm   2.0 mph 90% 0.00 in CLR
02:15 74.2 °F 71.4 °F 29.96 in Calm   3.0 mph 91% 0.00 in CLR
02:30 73.9 °F 71.1 °F 29.97 in Calm     91% 0.00 in CLR
02:45 73.1 °F 70.6 °F 29.97 in Calm     92% 0.00 in CLR
03:00 72.7 °F 70.6 °F 29.96 in Calm     93% 0.00 in CLR
03:15 72.5 °F 70.3 °F 29.96 in Calm   1.0 mph 93% 0.00 in FEW
03:30 72.2 °F 70.4 °F 29.96 in Calm     94% 0.00 in FEW
03:45 72.0 °F 70.2 °F 29.96 in Calm     94% 0.00 in FEW
04:00 71.9 °F 70.4 °F 29.96 in Calm     95% 0.00 in FEW
04:15 71.7 °F 70.2 °F 29.96 in Calm     95% 0.00 in CLR
04:30 72.1 °F 70.6 °F 29.95 in Calm   1.0 mph 95% 0.00 in CLR
04:45 72.2 °F 70.7 °F 29.96 in Calm   1.0 mph 95% 0.00 in CLR
05:00 72.0 °F 70.5 °F 29.95 in Calm     95% 0.00 in CLR
05:15 72.3 °F 71.1 °F 29.95 in Calm   1.0 mph 96% 0.00 in SCT
05:30 72.4 °F 71.2 °F 29.95 in Calm   1.0 mph 96% 0.00 in SCT
05:45 72.4 °F 71.2 °F 29.95 in Calm     96% 0.00 in SCT
06:00 72.2 °F 71.0 °F 29.96 in Calm     96% 0.00 in SCT
06:15 72.2 °F 71.0 °F 29.96 in Calm     96% 0.00 in CLR
06:30 72.4 °F 71.2 °F 29.96 in Calm     96% 0.00 in CLR
06:45 72.8 °F 71.6 °F 29.97 in SW 1.0 mph 4.0 mph 96% 0.00 in CLR
07:00 73.0 °F 71.5 °F 29.97 in SW 1.0 mph 7.0 mph 95% 0.00 in CLR
07:15 73.4 °F 71.9 °F 29.98 in South 3.0 mph 6.0 mph 95% 0.00 in FEW
07:30 73.3 °F 71.2 °F 29.98 in SSW 2.0 mph 6.0 mph 93% 0.00 in FEW
07:45 73.3 °F 71.2 °F 29.98 in SSW 1.0 mph 5.0 mph 93% 0.00 in FEW
08:00 75.1 °F 72.6 °F 29.97 in Calm   4.0 mph 92% 0.00 in FEW
08:15 77.0 °F 72.8 °F 29.97 in Calm   2.0 mph 87% 0.00 in FEW
08:30 76.6 °F 72.1 °F 29.98 in SSW 3.0 mph 7.0 mph 86% 0.00 in FEW
08:45 77.3 °F 72.4 °F 29.99 in SW 2.0 mph 8.0 mph 85% 0.00 in FEW
09:00 77.4 °F 72.2 °F 29.99 in SW 5.0 mph 10.0 mph 84% 0.00 in FEW
09:15 78.4 °F 72.8 °F 29.98 in SW 2.0 mph 10.0 mph 83% 0.00 in FEW
09:30 80.0 °F 73.3 °F 29.98 in SW 1.0 mph 8.0 mph 80% 0.00 in FEW
09:45 79.7 °F 73.0 °F 29.98 in SSW 3.0 mph 8.0 mph 80% 0.00 in FEW
10:00 81.4 °F 73.5 °F 29.98 in SSW 3.0 mph 8.0 mph 77% 0.00 in FEW
10:15 82.4 °F 73.7 °F 29.98 in South 2.0 mph 8.0 mph 75% 0.00 in SCT
10:30 83.2 °F 73.7 °F 29.98 in SW 3.0 mph 8.0 mph 73% 0.00 in SCT
10:45 83.1 °F 73.2 °F 29.99 in SW 3.0 mph 9.0 mph 72% 0.00 in SCT
11:00 84.0 °F 73.6 °F 29.98 in SW 2.0 mph 9.0 mph 71% 0.00 in SCT
11:15 84.5 °F 74.0 °F 29.99 in SSW 3.0 mph 10.0 mph 71% 0.00 in BKN
11:30 84.1 °F 73.7 °F 29.99 in WSW 1.0 mph 10.0 mph 71% 0.00 in BKN
11:45 84.4 °F 73.5 °F 29.99 in SSW 1.0 mph 10.0 mph 70% 0.00 in BKN
12:00 84.0 °F 72.7 °F 29.98 in West 2.0 mph 10.0 mph 69% 0.00 in BKN
12:15 85.2 °F 73.5 °F 29.97 in SSW 1.0 mph 6.0 mph 68% 0.00 in BKN
12:30 86.2 °F 74.0 °F 29.97 in Calm   7.0 mph 67% 0.00 in BKN
12:45 85.9 °F 73.3 °F 29.97 in Calm   6.0 mph 66% 0.00 in BKN
13:00 86.2 °F 73.5 °F 29.97 in SW 3.0 mph 12.0 mph 66% 0.00 in BKN
13:15 86.5 °F 73.4 °F 29.96 in SW 1.0 mph 12.0 mph 65% 0.00 in BKN
13:30 86.0 °F 73.7 °F 29.96 in SW 3.0 mph 10.0 mph 67% 0.00 in BKN
13:45 87.0 °F 72.4 °F 29.96 in WSW 5.0 mph 9.0 mph 62% 0.00 in BKN
14:00 87.0 °F 72.9 °F 29.95 in SSW 6.0 mph 10.0 mph 63% 0.00 in BKN
14:15 85.9 °F 72.3 °F 29.95 in SW 5.0 mph 13.0 mph 64% 0.00 in SCT
14:30 86.4 °F 73.2 °F 29.94 in SW 2.0 mph 12.0 mph 65% 0.00 in SCT
14:45 87.2 °F 73.1 °F 29.94 in SW 3.0 mph 8.0 mph 63% 0.00 in SCT
15:00 86.8 °F 72.2 °F 29.93 in SW 5.0 mph 9.0 mph 62% 0.00 in SCT
15:15 86.5 °F 71.9 °F 29.94 in SW 6.0 mph 14.0 mph 62% 0.00 in FEW
15:30 87.1 °F 71.5 °F 29.95 in WSW 5.0 mph 12.0 mph 60% 0.00 in FEW
15:45 86.9 °F 71.4 °F 29.94 in SW 2.0 mph 12.0 mph 60% 0.00 in FEW
16:00 86.9 °F 71.8 °F 29.94 in SSW 3.0 mph 12.0 mph 61% 0.00 in FEW
16:15 87.4 °F 71.8 °F 29.93 in SW 3.0 mph 10.0 mph 60% 0.00 in SCT
16:30 87.2 °F 71.6 °F 29.93 in SW 3.0 mph 12.0 mph 60% 0.00 in SCT
16:45 87.2 °F 72.1 °F 29.92 in SSW 2.0 mph 10.0 mph 61% 0.00 in SCT
17:00 87.4 °F 72.3 °F 29.92 in SW 5.0 mph 9.0 mph 61% 0.00 in SCT
17:15 86.6 °F 72.1 °F 29.93 in SSW 2.0 mph 12.0 mph 62% 0.00 in SCT
17:30 87.2 °F 72.1 °F 29.93 in SW 2.0 mph 10.0 mph 61% 0.00 in SCT
17:45 86.0 °F 71.4 °F 29.93 in SSW 1.0 mph 12.0 mph 62% 0.00 in SCT
18:00 85.0 °F 71.0 °F 29.94 in SSE 3.0 mph 7.0 mph 63% 0.00 in SCT
18:15 84.4 °F 71.3 °F 29.94 in South 2.0 mph 10.0 mph 65% 0.00 in SCT
18:30 84.3 °F 71.7 °F 29.94 in SW 2.0 mph 7.0 mph 66% 0.00 in SCT
18:45 84.0 °F 71.9 °F 29.94 in WSW 5.0 mph 12.0 mph 67% 0.00 in SCT
19:00 83.1 °F 71.8 °F 29.95 in SW 3.0 mph 12.0 mph 69% 0.00 in SCT
19:15 81.7 °F 72.6 °F 29.96 in Calm   9.0 mph 74% 0.02 in RA
19:30 79.8 °F 72.7 °F 29.96 in Calm   4.0 mph 79% 0.00 in FEW
19:45 79.7 °F 73.0 °F 29.96 in Calm   6.0 mph 80% 0.00 in FEW
20:00 79.7 °F 73.0 °F 29.96 in Calm   3.0 mph 80% 0.00 in FEW
20:15 79.4 °F 73.1 °F 29.97 in Calm   4.0 mph 81% 0.00 in BKN
20:30 79.3 °F 72.9 °F 29.97 in Calm   2.0 mph 81% 0.00 in BKN
20:45 79.0 °F 73.0 °F 29.98 in South 1.0 mph 3.0 mph 82% 0.01 in RA
21:00 78.4 °F 73.1 °F 29.99 in South 1.0 mph 3.0 mph 84% 0.01 in RA
21:15 77.4 °F 72.9 °F 29.99 in SSW 1.0 mph 6.0 mph 86% 0.00 in BKN
21:30 77.0 °F 72.5 °F 30.00 in Calm   4.0 mph 86% 0.00 in BKN
21:45 76.7 °F 72.5 °F 30.00 in Calm   2.0 mph 87% 0.00 in BKN
22:00 76.6 °F 72.8 °F 30.00 in Calm   1.0 mph 88% 0.00 in BKN
22:15 75.5 °F 72.4 °F 30.00 in Calm   2.0 mph 90% 0.00 in FEW
22:30 75.6 °F 72.7 °F 30.00 in Calm   3.0 mph 91% 0.00 in FEW
22:45 76.2 °F 72.7 °F 30.00 in Calm   4.0 mph 89% 0.00 in FEW
23:00 76.2 °F 72.4 °F 30.00 in SW 1.0 mph 2.0 mph 88% 0.00 in FEW
23:15 76.4 °F 72.6 °F 29.99 in SSW 1.0 mph 6.0 mph 88% 0.00 in CLR
23:30 76.5 °F 72.3 °F 30.00 in WSW 2.0 mph 7.0 mph 87% 0.00 in CLR
23:45 76.3 °F 72.5 °F 30.00 in SSW 1.0 mph 5.0 mph 88% 0.00 in CLR
TarryTown NY Weather
Compliments of Weather Underground - 1.5 mb